Glenville, New York
Current Conditions -  °F | °C
As of 11:15 PM on Wednesday 17 Dec 2014 (Local Time) from KNY0 Reporting Station
Overcast Overcast  
Wind Chill: 20°   Ceiling: 800
Heat Index: 31°   Visibility: 4mi
Dew Point: 29°   Wind: 15mph
Humidity: 92%   Direction: 270°W
Pressure: 29.81"   Gusts: 22mph
Location:  42.9294°N, 74.0527°W
Report Text: KNY0 180415Z AUTO 27013G19KT 4SM OVC008 00/M02 A2981 RMK AO2 T10051017
Loading
Personal Weather Stations






























Interactive Weather Map New forecast layout! Learn more

10-Day Weather Forecast

Advertisements
Track Severe Weather on mobile